createdAt,value
2023-04-22T00:01:01.629Z,99072.64
2023-04-22T00:03:30.287Z,99075.23
2023-04-22T00:05:59.128Z,99076.84
2023-04-22T00:08:27.716Z,99075.21
2023-04-22T00:10:56.897Z,99081.01
2023-04-22T00:13:26.578Z,99080.08
2023-04-22T00:15:55.237Z,99082.33
2023-04-22T00:18:23.874Z,99085.49
2023-04-22T00:20:52.467Z,99086.97
2023-04-22T00:23:20.948Z,99086.70
2023-04-22T00:25:49.305Z,99090.89
2023-04-22T00:28:17.697Z,99093.77
2023-04-22T00:30:46.451Z,99092.02
2023-04-22T00:33:14.802Z,99093.69
2023-04-22T00:35:46.418Z,99094.19
2023-04-22T00:38:15.044Z,99097.42
2023-04-22T00:40:43.488Z,99096.55
2023-04-22T00:43:12.537Z,99097.73
2023-04-22T00:45:42.676Z,99101.73
2023-04-22T00:48:13.250Z,99104.28
2023-04-22T00:50:41.812Z,99106.35
2023-04-22T00:53:10.420Z,99111.18
2023-04-22T00:55:38.872Z,99112.48
2023-04-22T00:58:08.107Z,99110.55
2023-04-22T01:00:36.806Z,99113.23
2023-04-22T01:03:07.710Z,99119.58
2023-04-22T01:05:36.625Z,99115.56
2023-04-22T01:08:05.405Z,99109.20
2023-04-22T01:10:33.802Z,99107.73
2023-04-22T01:13:02.200Z,99106.66
2023-04-22T01:15:31.037Z,99104.95
2023-04-22T01:18:01.007Z,99099.86
2023-04-22T01:20:30.419Z,99097.30
2023-04-22T01:23:04.375Z,99092.34
2023-04-22T01:25:33.869Z,99087.29
2023-04-22T01:28:03.034Z,99091.50
2023-04-22T01:30:32.396Z,99090.11
2023-04-22T01:33:01.915Z,99093.13
2023-04-22T01:35:37.204Z,99096.57
2023-04-22T01:38:08.367Z,99101.19
2023-04-22T01:40:38.139Z,99104.13
2023-04-22T01:43:06.451Z,99101.46
2023-04-22T01:45:35.102Z,99099.73
2023-04-22T01:48:04.949Z,99101.58
2023-04-22T01:50:33.581Z,99104.91
2023-04-22T01:53:02.369Z,99105.66
2023-04-22T01:55:31.691Z,99103.10
2023-04-22T01:58:00.123Z,99104.70
2023-04-22T02:00:28.538Z,99104.18
2023-04-22T02:02:56.934Z,99105.14
2023-04-22T02:05:26.176Z,99104.39
2023-04-22T02:07:54.952Z,99103.32
2023-04-22T02:10:23.925Z,99104.57
2023-04-22T02:12:52.635Z,99104.52
2023-04-22T02:15:21.225Z,99103.59
2023-04-22T02:17:49.558Z,99104.25
2023-04-22T02:20:17.953Z,99103.09
2023-04-22T02:22:46.474Z,99101.67
2023-04-22T02:25:14.892Z,99096.83
2023-04-22T02:27:44.158Z,99096.89
2023-04-22T02:30:13.345Z,99100.48
2023-04-22T02:32:42.090Z,99104.36
2023-04-22T02:35:11.969Z,99106.30
2023-04-22T02:37:40.483Z,99105.20
2023-04-22T02:40:09.119Z,99109.30
2023-04-22T02:42:37.523Z,99109.80
2023-04-22T02:45:06.695Z,99109.35
2023-04-22T02:47:35.398Z,99113.76
2023-04-22T02:50:04.185Z,99115.81
2023-04-22T02:52:34.274Z,99118.66
2023-04-22T02:55:02.573Z,99122.31
2023-04-22T02:57:31.230Z,99123.18
2023-04-22T02:59:59.588Z,99125.21
2023-04-22T03:02:28.167Z,99126.13
2023-04-22T03:05:10.399Z,99129.67
2023-04-22T03:07:39.082Z,99134.14
2023-04-22T03:10:08.526Z,99139.67
2023-04-22T03:12:37.102Z,99144.39
2023-04-22T03:15:06.138Z,99148.45
2023-04-22T03:17:34.965Z,99152.09
2023-04-22T03:20:06.664Z,99162.73
2023-04-22T03:22:35.440Z,99163.83
2023-04-22T03:25:05.016Z,99170.75
2023-04-22T03:27:33.990Z,99175.89
2023-04-22T03:30:02.682Z,99180.30
2023-04-22T03:32:31.673Z,99176.89
2023-04-22T03:35:16.165Z,99179.62
2023-04-22T03:37:45.546Z,99178.24
2023-04-22T03:40:15.425Z,99183.89
2023-04-22T03:42:44.259Z,99186.84
2023-04-22T03:45:13.031Z,99186.37
2023-04-22T03:47:45.177Z,99186.81
2023-04-22T03:50:21.874Z,99190.63
2023-04-22T03:52:50.665Z,99196.73
2023-04-22T03:55:20.768Z,99204.27
2023-04-22T03:57:50.899Z,99201.86
2023-04-22T04:00:19.507Z,99206.05
2023-04-22T04:02:51.081Z,99208.56
2023-04-22T04:05:20.058Z,99211.94
2023-04-22T04:07:48.826Z,99211.36
2023-04-22T04:10:17.514Z,99211.54
2023-04-22T04:12:45.831Z,99211.51
2023-04-22T04:15:14.142Z,99213.44
2023-04-22T04:17:42.983Z,99210.91
2023-04-22T04:20:12.020Z,99211.77
2023-04-22T04:22:41.331Z,99211.72
2023-04-22T04:25:10.593Z,99216.85
2023-04-22T04:27:42.992Z,99219.57
2023-04-22T04:30:13.548Z,99218.11
2023-04-22T04:32:45.927Z,99222.16
2023-04-22T04:35:15.488Z,99224.41
2023-04-22T04:37:47.578Z,99223.30
2023-04-22T04:40:16.897Z,99230.16
2023-04-22T04:43:08.839Z,99228.95
2023-04-22T04:45:48.735Z,99230.02
2023-04-22T04:48:20.265Z,99234.20
2023-04-22T04:50:54.506Z,99238.55
2023-04-22T04:53:23.293Z,99237.81
2023-04-22T04:55:51.652Z,99237.80
2023-04-22T04:58:23.283Z,99237.34
2023-04-22T05:01:00.155Z,99239.59
2023-04-22T05:03:28.818Z,99240.14
2023-04-22T05:05:57.520Z,99244.27
2023-04-22T05:08:26.908Z,99243.52
2023-04-22T05:10:59.790Z,99246.41
2023-04-22T05:13:28.374Z,99246.56
2023-04-22T05:15:57.220Z,99251.56
2023-04-22T05:18:27.197Z,99252.74
2023-04-22T05:20:55.726Z,99255.21
2023-04-22T05:23:26.427Z,99259.59
2023-04-22T05:25:56.702Z,99261.55
2023-04-22T05:28:25.260Z,99266.98
2023-04-22T05:30:57.109Z,99270.08
2023-04-22T05:33:26.929Z,99272.30
2023-04-22T05:35:56.393Z,99275.31
2023-04-22T05:38:25.216Z,99278.57
2023-04-22T05:40:53.561Z,99276.48
2023-04-22T05:43:22.506Z,99275.61
2023-04-22T05:45:57.377Z,99277.51
2023-04-22T05:48:25.879Z,99280.20
2023-04-22T05:51:03.286Z,99285.82
2023-04-22T05:53:32.151Z,99286.63
2023-04-22T05:56:01.668Z,99288.42
2023-04-22T05:58:30.921Z,99290.56
2023-04-22T06:01:10.328Z,99295.05
2023-04-22T06:03:47.981Z,99296.12
2023-04-22T06:06:17.046Z,99300.36
2023-04-22T06:08:47.296Z,99298.25
2023-04-22T06:11:15.804Z,99305.19
2023-04-22T06:13:44.653Z,99307.39
2023-04-22T06:16:13.423Z,99303.81
2023-04-22T06:18:43.701Z,99302.18
2023-04-22T06:21:13.297Z,99306.42
2023-04-22T06:23:42.881Z,99306.36
2023-04-22T06:26:11.314Z,99304.98
2023-04-22T06:28:40.136Z,99307.42
2023-04-22T06:31:12.911Z,99308.32
2023-04-22T06:33:41.901Z,99310.45
2023-04-22T06:36:11.089Z,99312.39
2023-04-22T06:38:39.976Z,99312.22
2023-04-22T06:41:21.685Z,99315.11
2023-04-22T06:43:51.257Z,99318.00
2023-04-22T06:46:19.690Z,99323.69
2023-04-22T06:49:07.263Z,99328.52
2023-04-22T06:51:54.234Z,99331.36
2023-04-22T06:54:22.929Z,99336.79
2023-04-22T06:56:52.594Z,99338.13
2023-04-22T06:59:20.981Z,99340.92
2023-04-22T07:01:49.984Z,99344.05
2023-04-22T07:04:22.125Z,99340.31
2023-04-22T07:06:51.011Z,99341.23
2023-04-22T07:09:19.534Z,99341.69
2023-04-22T07:11:48.596Z,99345.06
2023-04-22T07:14:21.874Z,99347.16
2023-04-22T07:16:50.472Z,99349.80
2023-04-22T07:19:18.829Z,99349.20
2023-04-22T07:21:47.198Z,99348.89
2023-04-22T07:24:16.177Z,99355.73
2023-04-22T07:26:45.018Z,99357.57
2023-04-22T07:29:13.380Z,99361.45
2023-04-22T07:31:41.768Z,99360.28
2023-04-22T07:34:10.930Z,99364.84
2023-04-22T07:36:39.409Z,99367.41
2023-04-22T07:39:10.046Z,99371.71
2023-04-22T07:41:38.598Z,99371.83
2023-04-22T07:44:07.218Z,99372.48
2023-04-22T07:46:35.574Z,99376.70
2023-04-22T07:49:03.932Z,99378.43
2023-04-22T07:51:32.769Z,99382.02
2023-04-22T07:54:01.158Z,99377.76
2023-04-22T07:56:29.711Z,99379.45
2023-04-22T07:58:58.072Z,99383.73
2023-04-22T08:01:26.469Z,99383.55
2023-04-22T08:03:54.844Z,99385.10
2023-04-22T08:06:23.309Z,99384.80
2023-04-22T08:08:51.573Z,99387.49
2023-04-22T08:11:19.860Z,99389.59
2023-04-22T08:13:48.083Z,99390.59
2023-04-22T08:16:16.532Z,99390.55
2023-04-22T08:18:44.945Z,99392.49
2023-04-22T08:21:13.417Z,99391.39
2023-04-22T08:23:41.950Z,99388.60
2023-04-22T08:26:15.344Z,99387.58
2023-04-22T08:28:43.806Z,99385.34
2023-04-22T08:31:13.283Z,99386.79
2023-04-22T08:33:42.182Z,99380.91
2023-04-22T08:36:11.434Z,99384.30
2023-04-22T08:38:39.744Z,99388.67
2023-04-22T08:41:08.737Z,99389.80
2023-04-22T08:43:37.109Z,99391.55
2023-04-22T08:46:06.110Z,99395.52
2023-04-22T08:48:35.398Z,99397.82
2023-04-22T08:51:05.812Z,99400.33
2023-04-22T08:53:34.467Z,99403.88
2023-04-22T08:56:02.923Z,99404.02
2023-04-22T08:58:34.187Z,99410.93
2023-04-22T09:01:03.743Z,99412.79
2023-04-22T09:03:32.591Z,99413.73
2023-04-22T09:06:04.482Z,99413.00
2023-04-22T09:08:33.174Z,99416.95
2023-04-22T09:11:01.674Z,99420.94
2023-04-22T09:13:31.607Z,99423.23
2023-04-22T09:16:00.199Z,99425.83
2023-04-22T09:18:28.947Z,99427.72
2023-04-22T09:20:57.614Z,99429.02
2023-04-22T09:23:26.798Z,99426.10
2023-04-22T09:25:57.672Z,99427.96
2023-04-22T09:28:26.167Z,99428.75
2023-04-22T09:30:54.493Z,99431.48
2023-04-22T09:33:25.943Z,99433.27
2023-04-22T09:35:56.219Z,99433.58
2023-04-22T09:38:24.520Z,99436.40
2023-04-22T09:40:52.723Z,99438.39
2023-04-22T09:43:21.127Z,99435.50
2023-04-22T09:45:49.822Z,99437.53
2023-04-22T09:48:19.874Z,99436.83
2023-04-22T09:50:51.097Z,99443.05
2023-04-22T09:53:22.409Z,99443.99
2023-04-22T09:55:53.303Z,99446.64
2023-04-22T09:58:24.039Z,99446.31
2023-04-22T10:00:57.301Z,99445.67
2023-04-22T10:03:26.011Z,99447.96
2023-04-22T10:05:55.560Z,99450.50
2023-04-22T10:08:25.090Z,99449.73
2023-04-22T10:10:54.455Z,99456.88
2023-04-22T10:13:22.823Z,99463.28
2023-04-22T10:15:54.369Z,99464.17
2023-04-22T10:18:27.411Z,99466.59
2023-04-22T10:20:58.106Z,99469.48
2023-04-22T10:23:26.452Z,99473.00
2023-04-22T10:25:56.962Z,99476.27
2023-04-22T10:28:29.753Z,99478.31
2023-04-22T10:30:58.656Z,99479.55
2023-04-22T10:33:36.715Z,99482.05
2023-04-22T10:36:20.359Z,99484.06
2023-04-22T10:38:57.353Z,99489.41
2023-04-22T10:41:36.484Z,99489.88
2023-04-22T10:44:08.559Z,99496.09
2023-04-22T10:46:54.897Z,99493.06
2023-04-22T10:49:26.212Z,99494.65
2023-04-22T10:51:58.524Z,99493.11
2023-04-22T10:54:31.863Z,99493.42
2023-04-22T10:57:07.752Z,99495.77
2023-04-22T10:59:48.806Z,99496.11
2023-04-22T11:02:19.722Z,99497.45
2023-04-22T11:04:49.020Z,99495.19
2023-04-22T11:07:27.067Z,99493.27
2023-04-22T11:10:04.407Z,99495.59
2023-04-22T11:12:38.785Z,99494.41
2023-04-22T11:15:10.638Z,99496.02
2023-04-22T11:17:43.554Z,99493.45
2023-04-22T11:20:13.251Z,99498.66
2023-04-22T11:22:53.772Z,99496.38
2023-04-22T11:25:23.926Z,99495.62
2023-04-22T11:27:53.895Z,99498.29
2023-04-22T11:30:24.834Z,99500.49
2023-04-22T11:32:57.429Z,99503.12
2023-04-22T11:35:25.766Z,99500.48
2023-04-22T11:38:02.445Z,99499.39
2023-04-22T11:40:41.283Z,99497.76
2023-04-22T11:43:11.932Z,99496.66
2023-04-22T11:45:41.414Z,99501.81
2023-04-22T11:48:11.944Z,99506.69
2023-04-22T11:50:44.291Z,99508.42
2023-04-22T11:53:24.332Z,99507.54
2023-04-22T11:55:53.114Z,99509.27
2023-04-22T11:58:27.508Z,99508.06
2023-04-22T12:00:58.691Z,99512.36
2023-04-22T12:03:31.437Z,99513.27
2023-04-22T12:06:03.871Z,99512.85
2023-04-22T12:08:35.833Z,99515.78
2023-04-22T12:11:07.120Z,99522.05
2023-04-22T12:13:38.475Z,99522.42
2023-04-22T12:16:13.067Z,99525.38
2023-04-22T12:18:50.943Z,99521.97
2023-04-22T12:21:25.052Z,99520.36
2023-04-22T12:23:55.595Z,99521.61
2023-04-22T12:26:27.514Z,99522.52
2023-04-22T12:28:58.451Z,99523.18
2023-04-22T12:31:28.168Z,99526.13
2023-04-22T12:33:56.751Z,99528.15
2023-04-22T12:36:26.413Z,99525.41
2023-04-22T12:38:54.754Z,99528.69
2023-04-22T12:41:23.847Z,99533.04
2023-04-22T12:43:52.942Z,99532.83
2023-04-22T12:46:21.546Z,99531.00
2023-04-22T12:48:50.052Z,99528.09
2023-04-22T12:51:18.381Z,99529.14
2023-04-22T12:53:46.689Z,99534.77
2023-04-22T12:56:15.461Z,99532.66
2023-04-22T12:58:43.795Z,99534.38
2023-04-22T13:01:12.397Z,99533.80
2023-04-22T13:03:40.783Z,99539.02
2023-04-22T13:06:09.124Z,99535.05
2023-04-22T13:08:37.695Z,99537.63
2023-04-22T13:11:06.602Z,99540.17
2023-04-22T13:13:34.969Z,99540.49
2023-04-22T13:16:03.388Z,99540.33
2023-04-22T13:18:32.494Z,99541.45
2023-04-22T13:21:01.024Z,99542.08
2023-04-22T13:23:29.812Z,99542.54
2023-04-22T13:25:58.292Z,99546.79
2023-04-22T13:28:26.804Z,99549.64
2023-04-22T13:30:55.819Z,99545.30
2023-04-22T13:33:24.313Z,99548.48
2023-04-22T13:35:52.673Z,99548.99
2023-04-22T13:38:21.652Z,99550.77
2023-04-22T13:40:50.009Z,99555.83
2023-04-22T13:43:18.363Z,99557.33
2023-04-22T13:45:48.750Z,99561.92
2023-04-22T13:48:17.443Z,99567.27
2023-04-22T13:50:45.870Z,99571.09
2023-04-22T13:53:14.350Z,99572.38
2023-04-22T13:55:43.615Z,99575.67
2023-04-22T13:58:12.063Z,99576.35
2023-04-22T14:00:40.765Z,99578.05
2023-04-22T14:03:09.298Z,99581.94
2023-04-22T14:05:40.208Z,99583.17
2023-04-22T14:08:08.508Z,99581.75
2023-04-22T14:10:36.923Z,99585.16
2023-04-22T14:13:05.960Z,99585.71
2023-04-22T14:15:34.289Z,99587.16
2023-04-22T14:18:02.722Z,99586.64
2023-04-22T14:20:31.584Z,99589.51
2023-04-22T14:23:01.231Z,99589.48
2023-04-22T14:25:29.748Z,99597.77
2023-04-22T14:27:58.113Z,99597.41
2023-04-22T14:30:26.620Z,99601.26
2023-04-22T14:32:55.147Z,99603.05
2023-04-22T14:35:23.546Z,99602.29
2023-04-22T14:37:51.839Z,99602.80
2023-04-22T14:40:20.488Z,99607.64
2023-04-22T14:42:49.024Z,99608.59
2023-04-22T14:45:17.439Z,99612.44
2023-04-22T14:47:45.951Z,99610.75
2023-04-22T14:50:14.373Z,99616.09
2023-04-22T14:52:43.670Z,99615.59
2023-04-22T14:55:22.663Z,99615.48
2023-04-22T14:57:56.953Z,99619.80
2023-04-22T15:00:26.588Z,99620.84
2023-04-22T15:02:56.176Z,99623.83
2023-04-22T15:05:24.862Z,99629.08
2023-04-22T15:07:53.839Z,99632.33
2023-04-22T15:10:22.335Z,99631.94
2023-04-22T15:12:50.997Z,99633.55
2023-04-22T15:15:19.611Z,99641.04
2023-04-22T15:17:48.003Z,99644.41
2023-04-22T15:20:16.438Z,99645.14
2023-04-22T15:22:45.022Z,99649.80
2023-04-22T15:25:14.352Z,99651.98
2023-04-22T15:27:43.665Z,99656.13
2023-04-22T15:30:12.192Z,99659.98
2023-04-22T15:32:41.030Z,99658.84
2023-04-22T15:35:09.575Z,99660.83
2023-04-22T15:37:38.119Z,99663.91
2023-04-22T15:40:08.026Z,99663.22
2023-04-22T15:42:36.686Z,99664.91
2023-04-22T15:45:05.709Z,99669.29
2023-04-22T15:47:34.941Z,99666.43
2023-04-22T15:50:06.854Z,99671.55
2023-04-22T15:52:37.912Z,99674.72
2023-04-22T15:55:08.021Z,99673.06
2023-04-22T15:57:37.074Z,99675.68
2023-04-22T16:00:12.330Z,99673.04
2023-04-22T16:02:44.948Z,99676.74
2023-04-22T16:05:14.922Z,99682.16
2023-04-22T16:07:43.532Z,99683.71
2023-04-22T16:10:12.294Z,99686.94
2023-04-22T16:12:42.581Z,99690.02
2023-04-22T16:15:11.273Z,99693.55
2023-04-22T16:17:40.739Z,99697.10
2023-04-22T16:20:10.249Z,99698.46
2023-04-22T16:22:38.967Z,99702.92
2023-04-22T16:25:08.181Z,99703.23
2023-04-22T16:27:36.798Z,99705.70
2023-04-22T16:30:05.936Z,99707.59
2023-04-22T16:32:34.688Z,99711.23
2023-04-22T16:35:03.082Z,99709.74
2023-04-22T16:37:31.809Z,99708.40
2023-04-22T16:40:01.282Z,99717.06
2023-04-22T16:42:30.213Z,99719.89
2023-04-22T16:44:58.635Z,99720.89
2023-04-22T16:47:27.237Z,99723.44
2023-04-22T16:49:55.649Z,99728.53
2023-04-22T16:52:23.956Z,99730.17
2023-04-22T16:54:52.307Z,99738.11
2023-04-22T16:57:20.806Z,99740.15
2023-04-22T16:59:49.134Z,99746.94
2023-04-22T17:02:18.113Z,99746.48
2023-04-22T17:04:46.532Z,99751.95
2023-04-22T17:07:14.837Z,99758.98
2023-04-22T17:09:43.359Z,99760.74
2023-04-22T17:12:11.967Z,99766.02
2023-04-22T17:14:40.247Z,99767.97
2023-04-22T17:17:08.630Z,99772.67
2023-04-22T17:19:37.251Z,99775.69
2023-04-22T17:22:06.098Z,99775.66
2023-04-22T17:24:35.691Z,99782.05
2023-04-22T17:27:04.723Z,99786.14
2023-04-22T17:29:33.973Z,99785.33
2023-04-22T17:32:02.353Z,99788.23
2023-04-22T17:34:31.634Z,99790.02
2023-04-22T17:37:00.047Z,99790.54
2023-04-22T17:39:28.493Z,99793.23
2023-04-22T17:41:58.739Z,99797.29
2023-04-22T17:44:27.068Z,99801.20
2023-04-22T17:46:55.538Z,99805.95
2023-04-22T17:49:24.102Z,99808.25
2023-04-22T17:51:52.549Z,99812.31
2023-04-22T17:54:20.881Z,99812.98
2023-04-22T17:56:49.154Z,99814.37
2023-04-22T17:59:17.506Z,99817.02
2023-04-22T18:01:46.228Z,99821.03
2023-04-22T18:04:14.880Z,99822.34
2023-04-22T18:06:43.508Z,99825.02
2023-04-22T18:09:11.985Z,99823.74
2023-04-22T18:11:41.670Z,99823.74
2023-04-22T18:14:10.323Z,99830.20
2023-04-22T18:16:38.735Z,99831.89
2023-04-22T18:19:07.236Z,99832.11
2023-04-22T18:21:38.095Z,99838.10
2023-04-22T18:24:08.586Z,99835.70
2023-04-22T18:26:37.046Z,99840.19
2023-04-22T18:29:05.961Z,99839.95
2023-04-22T18:31:35.866Z,99838.98
2023-04-22T18:34:04.454Z,99842.55
2023-04-22T18:36:33.492Z,99843.16
2023-04-22T18:39:04.767Z,99846.91
2023-04-22T18:41:33.620Z,99847.95
2023-04-22T18:44:02.051Z,99848.69
2023-04-22T18:46:31.367Z,99849.07
2023-04-22T18:48:59.677Z,99850.52
2023-04-22T18:51:28.095Z,99856.54
2023-04-22T18:53:56.888Z,99856.80
2023-04-22T18:56:25.890Z,99860.26
2023-04-22T18:58:55.308Z,99858.36
2023-04-22T19:01:23.850Z,99857.38
2023-04-22T19:03:52.560Z,99859.70
2023-04-22T19:06:21.095Z,99860.85
2023-04-22T19:08:52.046Z,99856.23
2023-04-22T19:11:20.540Z,99860.11
2023-04-22T19:13:49.048Z,99856.90
2023-04-22T19:16:17.900Z,99862.02
2023-04-22T19:18:46.676Z,99867.65
2023-04-22T19:21:16.256Z,99868.52
2023-04-22T19:23:44.602Z,99869.19
2023-04-22T19:26:13.070Z,99870.23
2023-04-22T19:28:47.233Z,99868.67
2023-04-22T19:31:17.475Z,99869.50
2023-04-22T19:33:46.286Z,99871.63
2023-04-22T19:36:14.748Z,99872.80
2023-04-22T19:38:43.706Z,99872.23
2023-04-22T19:41:12.295Z,99873.11
2023-04-22T19:43:40.961Z,99874.92
2023-04-22T19:46:09.257Z,99879.22
2023-04-22T19:48:38.119Z,99882.02
2023-04-22T19:51:06.921Z,99881.39
2023-04-22T19:53:35.735Z,99882.20
2023-04-22T19:56:04.434Z,99880.40
2023-04-22T19:58:33.227Z,99881.70
2023-04-22T20:01:01.708Z,99881.77
2023-04-22T20:03:30.624Z,99882.16
2023-04-22T20:06:00.576Z,99878.73
2023-04-22T20:08:29.759Z,99883.23
2023-04-22T20:10:58.948Z,99886.60
2023-04-22T20:13:28.233Z,99892.64
2023-04-22T20:15:56.813Z,99889.79
2023-04-22T20:18:27.215Z,99891.00
2023-04-22T20:20:58.674Z,99897.98
2023-04-22T20:23:28.619Z,99897.05
2023-04-22T20:25:57.937Z,99894.70
2023-04-22T20:28:54.172Z,99898.64
2023-04-22T20:31:24.191Z,99900.05
2023-04-22T20:33:52.924Z,99900.02
2023-04-22T20:36:22.722Z,99902.30
2023-04-22T20:38:55.080Z,99906.39
2023-04-22T20:41:24.751Z,99905.98
2023-04-22T20:43:53.481Z,99907.56
2023-04-22T20:46:23.430Z,99906.19
2023-04-22T20:48:52.564Z,99904.39
2023-04-22T20:51:20.999Z,99905.27
2023-04-22T20:53:50.867Z,99907.59
2023-04-22T20:56:21.636Z,99911.84
2023-04-22T20:58:49.877Z,99914.02
2023-04-22T21:01:19.728Z,99921.33
2023-04-22T21:03:53.085Z,99921.59
2023-04-22T21:06:22.050Z,99922.33
2023-04-22T21:08:50.800Z,99922.54
2023-04-22T21:11:19.354Z,99923.18
2023-04-22T21:13:49.054Z,99927.61
2023-04-22T21:16:19.400Z,99928.30
2023-04-22T21:18:49.177Z,99929.34
2023-04-22T21:21:19.840Z,99930.45
2023-04-22T21:23:48.740Z,99931.23
2023-04-22T21:26:17.902Z,99929.90
2023-04-22T21:28:50.003Z,99932.04
2023-04-22T21:31:18.787Z,99932.38
2023-04-22T21:33:47.129Z,99929.60
2023-04-22T21:36:15.796Z,99930.70
2023-04-22T21:38:44.310Z,99935.15
2023-04-22T21:41:13.154Z,99935.77
2023-04-22T21:43:41.534Z,99935.23
2023-04-22T21:46:09.844Z,99938.38
2023-04-22T21:48:38.116Z,99936.90
2023-04-22T21:51:06.489Z,99933.79
2023-04-22T21:53:34.938Z,99935.23
2023-04-22T21:56:05.535Z,99934.42
2023-04-22T21:58:34.087Z,99937.83
2023-04-22T22:01:02.481Z,99937.46
2023-04-22T22:03:31.803Z,99939.89
2023-04-22T22:06:00.818Z,99942.36
2023-04-22T22:08:31.771Z,99943.66
2023-04-22T22:11:00.144Z,99940.23
2023-04-22T22:13:28.712Z,99942.13
2023-04-22T22:15:57.733Z,99942.39
2023-04-22T22:18:29.051Z,99941.95
2023-04-22T22:20:57.381Z,99942.36
2023-04-22T22:23:26.596Z,99941.41
2023-04-22T22:25:54.917Z,99940.04
2023-04-22T22:28:23.281Z,99939.98
2023-04-22T22:30:51.552Z,99943.48
2023-04-22T22:33:19.889Z,99944.38
2023-04-22T22:35:48.181Z,99942.74
2023-04-22T22:38:17.691Z,99944.73
2023-04-22T22:40:46.446Z,99946.67
2023-04-22T22:43:14.870Z,99945.91
2023-04-22T22:45:43.301Z,99947.69
2023-04-22T22:48:11.970Z,99951.43
2023-04-22T22:50:40.697Z,99948.13
2023-04-22T22:53:09.263Z,99950.33
2023-04-22T22:55:37.669Z,99950.38
2023-04-22T22:58:05.916Z,99951.84
2023-04-22T23:00:34.416Z,99954.25
2023-04-22T23:03:03.884Z,99954.75
2023-04-22T23:05:32.555Z,99954.56
2023-04-22T23:08:01.079Z,99958.02
2023-04-22T23:10:30.039Z,99961.35
2023-04-22T23:12:58.422Z,99964.03
2023-04-22T23:15:26.952Z,99964.87
2023-04-22T23:17:55.396Z,99967.41
2023-04-22T23:20:24.678Z,99967.01
2023-04-22T23:22:54.432Z,99971.11
2023-04-22T23:25:23.365Z,99973.62
2023-04-22T23:27:53.025Z,99969.74
2023-04-22T23:30:22.184Z,99973.92
2023-04-22T23:32:54.587Z,99973.16
2023-04-22T23:35:27.193Z,99973.70
2023-04-22T23:37:57.922Z,99972.25
2023-04-22T23:40:26.321Z,99976.57
2023-04-22T23:42:54.595Z,99975.20
2023-04-22T23:45:22.990Z,99974.73
2023-04-22T23:47:51.456Z,99978.33
2023-04-22T23:50:19.935Z,99979.60
2023-04-22T23:52:48.344Z,99985.73
2023-04-22T23:55:17.869Z,99986.19
2023-04-22T23:57:46.431Z,99988.43
